MIDDLE PEAK RAWS NEAR KENTFIELD 2SW HADS current weather conditions

sailwx.info

Wind from 316 at 17 knots gusting 28

Air temperature 6.1° C
Dewpoint 5.4° C

Last reported at 2017-Apr-23 06:36 UTC.
Time now 2017-Apr-23 08:13 UTC

Location: N 37°56' W 122°35'.
View on Google Maps.

See reports from other nearby stations

  
Tides and Currents Weather Stations Pressure Air Temp Water Temp Dewpoint Dewpoint Depression Visibility Wind Speed Wind Dir Waves Ship Positions
date/time (UTC)wind fromknots sea level pressurealtimeterstation pressurevisibilityair tempwater tempwave heightnotes
2017-Apr-23 06:36 316 17 gusting 28 6.1
2017-Apr-23 05:36 311 19 gusting 30 6.1
2017-Apr-23 04:36 307 18 gusting 24 6.7
2017-Apr-23 03:36 312 15 gusting 20 8.9
2017-Apr-23 02:36 310 13 gusting 19 10.0
2017-Apr-23 01:36 314 14 gusting 23 11.1
2017-Apr-23 00:36 315 12 gusting 17 11.1
2017-Apr-22 23:36 322 5 gusting 9 13.3
2017-Apr-22 22:36 314 4 gusting 11 13.9
2017-Apr-22 21:36 331 6 gusting 12 14.4
2017-Apr-22 20:36 334 6 gusting 12 15.0
2017-Apr-22 19:36 325 5 gusting 8 15.0
2017-Apr-22 18:36 326 6 gusting 12 12.8
2017-Apr-22 17:36 325 8 gusting 11 10.6
2017-Apr-22 16:36 323 8 gusting 13 10.0
2017-Apr-22 15:36 312 8 gusting 13 10.6
2017-Apr-22 14:36 302 9 gusting 18 10.0
2017-Apr-22 13:36 308 13 gusting 22 10.0
2017-Apr-22 12:36 311 15 gusting 22 11.7
2017-Apr-22 11:36 308 15 gusting 22 12.8
2017-Apr-22 10:36 284 14 gusting 23 12.8
2017-Apr-22 09:36 277 13 gusting 17 13.3
2017-Apr-22 08:36 273 12 gusting 16 13.9
2017-Apr-22 07:36 263 8 gusting 11 15.0
2017-Apr-22 06:36 291 8 gusting 13 15.6
2017-Apr-22 05:36 288 7 gusting 11 15.6
2017-Apr-22 04:36 297 6 gusting 9 16.1
2017-Apr-22 03:36 284 6 gusting 12 16.1
2017-Apr-22 02:36 292 6 gusting 12 15.6
2017-Apr-22 01:36 315 6 gusting 13 18.3
2017-Apr-22 00:36 330 9 gusting 13 20.0
2017-Apr-21 23:36 330 7 gusting 11 21.1
2017-Apr-21 22:36 330 6 gusting 14 20.6
2017-Apr-21 21:36 325 4 gusting 9 20.6
2017-Apr-21 20:36 020 3 gusting 6 20.0
2017-Apr-21 19:36 333 3 gusting 13 18.3
2017-Apr-21 18:36 354 6 gusting 11 17.2
2017-Apr-21 17:36 011 5 gusting 9 16.1
2017-Apr-21 16:36 346 7 gusting 19 14.4
2017-Apr-21 15:36 350 10 gusting 15 13.3
2017-Apr-21 14:36 350 9 gusting 13 11.7
2017-Apr-21 13:36 351 8 gusting 14 10.6
2017-Apr-21 12:36 346 10 gusting 15 11.1
2017-Apr-21 11:36 336 11 gusting 16 10.6
2017-Apr-21 10:36 334 12 gusting 15 10.6
2017-Apr-21 09:36 331 11 gusting 14 10.6
2017-Apr-21 08:36 322 9 gusting 14 10.6